Time;durP1;ratioP1;P1;durP2;ratioP2;P2;SDS_P1;SDS_P2;PMS_P1;PMS_P2;Temp;Humidity;BMP_temperature;BMP_pressure;BME280_temperature;BME280_humidity;BME280_pressure;Samples;Min_cycle;Max_cycle;Signal;HPM_P1;HPM_P2
2021/06/22 00:00:58;;;;;;;11.43;8.37;;;22.40;99.90;;;;;;4431722;32;20158;-69
2021/06/22 00:03:25;;;;;;;10.13;7.57;;;22.40;99.90;;;;;;4438327;32;20158;-70
2021/06/22 00:05:52;;;;;;;11.00;8.07;;;22.40;99.90;;;;;;4438384;32;20182;-70
2021/06/22 00:08:19;;;;;;;12.70;8.18;;;22.40;99.90;;;;;;4437227;32;20196;-70
2021/06/22 00:11:03;;;;;;;10.00;7.70;;;22.40;99.90;;;;;;4439006;32;20202;-70
2021/06/22 00:13:30;;;;;;;9.97;7.90;;;22.30;99.90;;;;;;4441079;32;20138;-70
2021/06/22 00:15:57;;;;;;;9.73;7.87;;;22.30;99.90;;;;;;4442446;32;20142;-70
2021/06/22 00:18:24;;;;;;;12.77;8.17;;;22.30;99.90;;;;;;4441015;32;20189;-70
2021/06/22 00:20:51;;;;;;;13.97;8.73;;;22.30;99.90;;;;;;4442341;32;20555;-70
2021/06/22 00:23:17;;;;;;;12.70;8.97;;;22.20;99.90;;;;;;4440863;32;20185;-70
2021/06/22 00:25:44;;;;;;;11.13;8.60;;;22.10;99.90;;;;;;4441926;32;20146;-70
2021/06/22 00:28:11;;;;;;;12.00;8.40;;;22.20;99.90;;;;;;4440844;32;20559;-70
2021/06/22 00:30:38;;;;;;;10.73;8.10;;;22.20;99.90;;;;;;4440741;32;20170;-71
2021/06/22 00:33:05;;;;;;;9.67;8.13;;;22.20;99.90;;;;;;4440728;32;20198;-66
2021/06/22 00:35:32;;;;;;;10.53;8.27;;;22.10;99.90;;;;;;4439938;32;20223;-65
2021/06/22 00:37:59;;;;;;;11.57;8.30;;;22.10;99.90;;;;;;4442156;32;20188;-65
2021/06/22 00:40:26;;;;;;;9.77;8.20;;;22.00;99.90;;;;;;4442102;32;20207;-65
2021/06/22 00:42:53;;;;;;;12.47;8.63;;;22.00;99.90;;;;;;4442477;32;20198;-66
2021/06/22 00:45:28;;;;;;;11.67;8.83;;;22.00;99.90;;;;;;4441947;32;20166;-67
2021/06/22 00:47:56;;;;;;;13.03;8.73;;;21.90;99.90;;;;;;4442033;32;20161;-66
2021/06/22 00:50:23;;;;;;;11.73;9.13;;;21.90;99.90;;;;;;4442017;32;20151;-66
2021/06/22 00:52:50;;;;;;;11.73;8.73;;;21.80;99.90;;;;;;4442003;32;20166;-66
2021/06/22 00:55:30;;;;;;;17.73;9.20;;;21.80;99.90;;;;;;4441997;32;20183;-65
2021/06/22 00:58:17;;;;;;;12.73;9.13;;;21.80;99.90;;;;;;4439810;32;20511;-64
2021/06/22 01:00:44;;;;;;;14.47;9.03;;;21.80;99.90;;;;;;4440295;32;20173;-65
2021/06/22 01:03:11;;;;;;;14.03;9.23;;;21.70;99.90;;;;;;4440211;32;20194;-65
2021/06/22 01:05:38;;;;;;;15.77;9.23;;;21.70;99.90;;;;;;4441754;32;20169;-66
2021/06/22 01:08:05;;;;;;;12.13;8.73;;;21.60;99.90;;;;;;4441899;32;20150;-65
2021/06/22 01:10:32;;;;;;;12.03;8.73;;;21.60;99.90;;;;;;4441726;32;20162;-64
2021/06/22 01:12:59;;;;;;;12.77;9.00;;;21.70;99.90;;;;;;4441590;32;20147;-64
2021/06/22 01:15:28;;;;;;;11.67;8.90;;;21.70;99.90;;;;;;4441052;32;20138;-65
2021/06/22 01:17:58;;;;;;;15.63;9.07;;;21.70;99.90;;;;;;4440014;32;20177;-65
2021/06/22 01:20:32;;;;;;;10.63;9.10;;;21.70;99.90;;;;;;4439608;32;20173;-64
2021/06/22 01:23:00;;;;;;;11.90;8.87;;;21.60;99.90;;;;;;4441018;32;20135;-64
2021/06/22 01:25:28;;;;;;;16.63;9.73;;;21.60;99.90;;;;;;4440730;32;20146;-64
2021/06/22 01:27:58;;;;;;;10.20;9.07;;;21.60;99.90;;;;;;4441398;32;20139;-64
2021/06/22 01:30:26;;;;;;;11.97;9.30;;;21.50;99.90;;;;;;4440735;32;20169;-65
2021/06/22 01:32:53;;;;;;;14.63;9.90;;;21.50;99.90;;;;;;4439933;32;20168;-64
2021/06/22 01:35:20;;;;;;;12.43;9.50;;;21.50;99.90;;;;;;4439964;32;20135;-65
2021/06/22 01:37:51;;;;;;;12.97;9.30;;;21.50;99.90;;;;;;4440756;32;20147;-66
2021/06/22 01:40:19;;;;;;;13.43;9.57;;;21.40;99.90;;;;;;4437286;32;20185;-65
2021/06/22 01:42:46;;;;;;;15.63;9.83;;;21.40;99.90;;;;;;4441174;32;20355;-65
2021/06/22 01:45:14;;;;;;;18.03;9.63;;;21.30;99.90;;;;;;4441150;32;20393;-64
2021/06/22 01:47:41;;;;;;;13.77;9.53;;;21.30;99.90;;;;;;4439542;32;20165;-64
2021/06/22 01:50:10;;;;;;;12.00;9.63;;;21.30;99.90;;;;;;4435398;32;20234;-65
2021/06/22 01:52:37;;;;;;;15.53;10.33;;;21.30;99.90;;;;;;4425735;32;20146;-65
2021/06/22 01:55:35;;;;;;;14.17;10.27;;;21.20;99.90;;;;;;4424260;32;20402;-65
2021/06/22 01:57:56;;;;;;;16.87;10.40;;;21.10;99.90;;;;;;4426230;32;20177;-64
2021/06/22 02:00:23;;;;;;;14.70;10.20;;;21.10;99.90;;;;;;4424776;32;20146;-64
2021/06/22 02:02:50;;;;;;;14.03;10.07;;;21.10;99.90;;;;;;4425544;32;20143;-64
2021/06/22 02:05:17;;;;;;;18.60;11.53;;;21.00;99.90;;;;;;4425550;32;20196;-65
2021/06/22 02:07:46;;;;;;;14.57;10.60;;;21.00;99.90;;;;;;4424105;32;20143;-65
2021/06/22 02:10:13;;;;;;;12.60;9.77;;;21.00;99.90;;;;;;4425307;32;20228;-64
2021/06/22 02:12:40;;;;;;;14.33;10.53;;;21.00;99.90;;;;;;4423885;32;20189;-65
2021/06/22 02:15:09;;;;;;;16.33;10.97;;;21.00;99.90;;;;;;4424845;32;20540;-64
2021/06/22 02:17:36;;;;;;;13.07;11.00;;;21.00;99.90;;;;;;4425347;32;20140;-64
2021/06/22 02:20:07;;;;;;;13.70;11.20;;;21.00;99.90;;;;;;4425182;32;20194;-63
2021/06/22 02:22:34;;;;;;;18.60;11.63;;;21.00;99.90;;;;;;4425298;32;20143;-65
2021/06/22 02:25:04;;;;;;;18.83;11.67;;;21.00;99.90;;;;;;4424439;32;20188;-65
2021/06/22 02:27:32;;;;;;;15.67;11.53;;;21.00;99.90;;;;;;4423680;32;20147;-65
2021/06/22 02:29:59;;;;;;;17.20;11.50;;;21.00;99.90;;;;;;4424621;32;20151;-65
2021/06/22 02:32:27;;;;;;;16.43;11.37;;;21.00;99.90;;;;;;4425161;32;20523;-65
2021/06/22 02:34:54;;;;;;;18.83;11.97;;;21.00;99.90;;;;;;4423232;32;20139;-65
2021/06/22 02:37:21;;;;;;;16.93;12.10;;;21.00;99.90;;;;;;4424985;32;20159;-65
2021/06/22 02:39:48;;;;;;;15.50;12.03;;;20.90;99.90;;;;;;4423813;32;20213;-65
2021/06/22 02:42:15;;;;;;;14.77;11.20;;;21.00;99.90;;;;;;4424927;32;20181;-64
2021/06/22 02:44:43;;;;;;;16.57;11.70;;;20.90;99.90;;;;;;4424226;32;20239;-65
2021/06/22 02:47:10;;;;;;;19.50;11.63;;;21.00;99.90;;;;;;4424981;32;20169;-65
2021/06/22 02:49:37;;;;;;;17.33;11.77;;;21.00;99.90;;;;;;4424974;32;20161;-65
2021/06/22 02:52:05;;;;;;;17.23;11.77;;;21.00;99.90;;;;;;4424186;32;20181;-65
2021/06/22 02:54:37;;;;;;;16.67;11.17;;;21.00;99.90;;;;;;4424991;32;20178;-65
2021/06/22 02:57:07;;;;;;;14.03;11.40;;;21.00;99.90;;;;;;4425313;32;20209;-66
2021/06/22 02:59:35;;;;;;;20.63;12.40;;;21.00;99.90;;;;;;4424256;32;20380;-65
2021/06/22 03:02:03;;;;;;;18.67;11.63;;;21.10;99.90;;;;;;4423948;32;20147;-65
2021/06/22 03:04:30;;;;;;;17.53;11.80;;;21.10;99.90;;;;;;4424784;32;20146;-65
2021/06/22 03:06:57;;;;;;;19.73;12.00;;;21.10;99.90;;;;;;4423422;32;20151;-65
2021/06/22 03:09:25;;;;;;;18.63;12.27;;;21.20;99.90;;;;;;4423344;32;20434;-65
2021/06/22 03:11:54;;;;;;;20.13;12.33;;;21.20;99.90;;;;;;4424330;32;20215;-65
2021/06/22 03:14:22;;;;;;;19.70;12.80;;;21.20;99.90;;;;;;4424725;32;20210;-65
2021/06/22 03:16:50;;;;;;;15.13;12.17;;;21.30;99.90;;;;;;4423340;32;20462;-65
2021/06/22 03:19:18;;;;;;;18.30;13.10;;;21.30;99.90;;;;;;4424734;32;20174;-65
2021/06/22 03:21:47;;;;;;;17.77;12.93;;;21.30;99.90;;;;;;4423394;32;20155;-65
2021/06/22 03:24:16;;;;;;;19.53;13.17;;;21.30;99.90;;;;;;4424752;32;20435;-65
2021/06/22 03:26:43;;;;;;;16.83;12.50;;;21.40;99.90;;;;;;4424707;32;20412;-65
2021/06/22 03:29:11;;;;;;;20.03;12.47;;;21.40;99.90;;;;;;4424624;32;20151;-65
2021/06/22 03:31:38;;;;;;;17.83;13.00;;;21.60;99.90;;;;;;4423900;32;20139;-65
2021/06/22 03:34:05;;;;;;;20.50;12.40;;;21.50;99.90;;;;;;4424595;32;20138;-64
2021/06/22 03:36:32;;;;;;;16.27;12.23;;;21.50;99.90;;;;;;4423113;32;20218;-64
2021/06/22 03:38:59;;;;;;;19.70;13.60;;;21.50;99.90;;;;;;4423054;32;20147;-64
2021/06/22 03:41:26;;;;;;;18.60;12.80;;;21.50;99.90;;;;;;4424516;32;20146;-65
2021/06/22 03:43:56;;;;;;;18.40;12.73;;;21.60;99.90;;;;;;4424476;32;20158;-64
2021/06/22 03:46:23;;;;;;;21.83;13.13;;;21.60;99.90;;;;;;4427087;32;20402;-64
2021/06/22 03:48:50;;;;;;;16.90;12.67;;;21.70;99.90;;;;;;4427500;32;20143;-66
2021/06/22 03:51:17;;;;;;;19.10;13.00;;;21.70;99.90;;;;;;4427120;32;20192;-64
2021/06/22 03:53:44;;;;;;;18.83;12.83;;;21.80;99.90;;;;;;4430864;32;20413;-64
2021/06/22 03:56:11;;;;;;;20.93;13.00;;;21.80;99.90;;;;;;4440520;32;20174;-65
2021/06/22 03:58:38;;;;;;;18.90;12.80;;;21.80;99.90;;;;;;4429976;32;20433;-65
2021/06/22 04:01:05;;;;;;;18.27;12.40;;;21.80;99.90;;;;;;4427679;32;20173;-65
2021/06/22 04:03:33;;;;;;;21.20;12.67;;;22.00;99.90;;;;;;4425242;32;20174;-65
2021/06/22 04:06:00;;;;;;;19.47;12.80;;;22.00;99.90;;;;;;4425720;32;20495;-65
2021/06/22 04:08:27;;;;;;;18.50;12.40;;;22.00;99.90;;;;;;4439743;32;20161;-65
2021/06/22 04:10:54;;;;;;;17.80;12.23;;;22.10;99.90;;;;;;4442533;32;20192;-64
2021/06/22 04:13:21;;;;;;;19.43;12.97;;;22.10;99.90;;;;;;4442529;32;20184;-64
2021/06/22 04:15:48;;;;;;;20.37;13.00;;;22.20;99.90;;;;;;4437811;32;20151;-65
2021/06/22 04:18:15;;;;;;;18.20;12.77;;;22.30;99.90;;;;;;4425855;32;20566;-65
2021/06/22 04:20:42;;;;;;;18.13;12.80;;;22.30;99.90;;;;;;4426919;32;20226;-65
2021/06/22 04:23:09;;;;;;;18.63;13.10;;;22.40;99.90;;;;;;4425352;32;20146;-65
2021/06/22 04:25:36;;;;;;;20.70;13.67;;;22.40;99.90;;;;;;4425475;32;20469;-65
2021/06/22 04:28:04;;;;;;;19.70;13.03;;;22.40;99.90;;;;;;4426956;32;20214;-66
2021/06/22 04:30:33;;;;;;;17.50;12.13;;;22.40;99.90;;;;;;4425454;32;20192;-65
2021/06/22 04:33:01;;;;;;;18.27;13.47;;;22.40;99.90;;;;;;4425687;32;20203;-65
2021/06/22 04:35:29;;;;;;;19.60;14.03;;;22.50;99.90;;;;;;4426116;32;20192;-65
2021/06/22 04:37:58;;;;;;;21.40;14.05;;;22.50;99.90;;;;;;4425645;32;20398;-65
2021/06/22 04:40:25;;;;;;;19.20;13.80;;;22.50;99.90;;;;;;4425953;32;20150;-65
2021/06/22 04:42:52;;;;;;;16.63;13.50;;;22.60;99.90;;;;;;4425389;32;20507;-65
2021/06/22 04:45:20;;;;;;;18.07;13.17;;;22.60;99.90;;;;;;4426538;32;20200;-65
2021/06/22 04:47:48;;;;;;;19.83;13.90;;;22.70;99.90;;;;;;4427109;32;20151;-71
2021/06/22 04:50:15;;;;;;;20.90;13.97;;;22.80;99.90;;;;;;4425774;32;20165;-76
2021/06/22 04:52:42;;;;;;;20.00;14.13;;;22.90;99.90;;;;;;4429220;32;20181;-76
2021/06/22 04:55:13;;;;;;;19.80;13.47;;;22.90;99.90;;;;;;4435188;32;20476;-68
2021/06/22 04:57:42;;;;;;;22.60;13.73;;;22.90;99.90;;;;;;4439760;32;20195;-70
2021/06/22 05:00:10;;;;;;;20.93;13.97;;;22.90;99.90;;;;;;4440714;32;20150;-71
2021/06/22 05:02:38;;;;;;;18.07;14.17;;;22.90;99.90;;;;;;4439729;32;20146;-68
2021/06/22 05:05:06;;;;;;;23.80;14.30;;;23.00;99.90;;;;;;4440378;32;20448;-69
2021/06/22 05:07:33;;;;;;;22.33;14.07;;;23.00;99.90;;;;;;4440102;32;20195;-70
2021/06/22 05:10:00;;;;;;;18.73;12.87;;;23.10;99.90;;;;;;4440452;32;20210;-69
2021/06/22 05:12:27;;;;;;;21.57;13.40;;;23.10;99.90;;;;;;4440667;32;20177;-69
2021/06/22 05:14:54;;;;;;;21.70;14.05;;;23.20;99.90;;;;;;4439529;32;20174;-69
2021/06/22 05:17:21;;;;;;;18.62;13.40;;;23.40;99.90;;;;;;4440093;32;20162;-69
2021/06/22 05:19:48;;;;;;;18.37;13.33;;;23.50;99.90;;;;;;4440196;32;20154;-69
2021/06/22 05:22:15;;;;;;;16.35;13.52;;;23.60;99.90;;;;;;4439008;32;20162;-69
2021/06/22 05:24:42;;;;;;;19.98;13.05;;;23.60;99.90;;;;;;4441164;32;20201;-69
2021/06/22 05:27:12;;;;;;;23.58;12.70;;;23.70;99.90;;;;;;4439673;32;20147;-69
2021/06/22 05:29:42;;;;;;;17.12;12.77;;;23.70;99.90;;;;;;4439308;32;20207;-69
2021/06/22 05:32:09;;;;;;;19.48;13.27;;;23.70;99.90;;;;;;4436977;32;20176;-68
2021/06/22 05:34:36;;;;;;;25.55;13.32;;;23.90;99.90;;;;;;4436967;32;20163;-66
2021/06/22 05:37:03;;;;;;;18.35;12.57;;;23.90;99.90;;;;;;4436039;32;20185;-67
2021/06/22 05:39:30;;;;;;;18.23;12.90;;;24.00;99.90;;;;;;4438262;32;20200;-66
2021/06/22 05:41:57;;;;;;;21.95;12.27;;;24.00;99.90;;;;;;4438097;32;20510;-66
2021/06/22 05:44:24;;;;;;;18.17;12.57;;;24.10;99.90;;;;;;4438249;32;20197;-66
2021/06/22 05:46:51;;;;;;;19.98;12.37;;;24.20;99.90;;;;;;4439871;32;20221;-66
2021/06/22 05:49:18;;;;;;;19.83;12.32;;;24.20;99.90;;;;;;4439932;32;20507;-66
2021/06/22 05:51:45;;;;;;;22.17;13.20;;;24.30;99.90;;;;;;4440089;32;20146;-66
2021/06/22 05:54:12;;;;;;;19.50;12.15;;;24.30;99.90;;;;;;4439997;32;20496;-66
2021/06/22 05:56:39;;;;;;;18.58;11.23;;;24.40;99.90;;;;;;4440705;32;20146;-66
2021/06/22 05:59:06;;;;;;;20.33;11.90;;;24.40;99.90;;;;;;4439785;32;20165;-66
2021/06/22 06:01:33;;;;;;;15.85;12.05;;;24.50;99.90;;;;;;4438964;32;20153;-67
2021/06/22 06:04:00;;;;;;;20.98;12.15;;;24.60;99.90;;;;;;4440748;32;20138;-66
2021/06/22 06:06:27;;;;;;;17.20;11.70;;;24.60;99.90;;;;;;4440554;32;20379;-66
2021/06/22 06:08:54;;;;;;;17.92;11.48;;;24.80;99.90;;;;;;4440459;32;20222;-66
2021/06/22 06:11:21;;;;;;;18.55;11.82;;;24.80;99.90;;;;;;4440327;32;20449;-66
2021/06/22 06:13:47;;;;;;;17.20;11.50;;;24.90;99.90;;;;;;4440243;32;20150;-66
2021/06/22 06:16:14;;;;;;;19.33;11.68;;;24.90;99.90;;;;;;4440448;32;20178;-67
2021/06/22 06:18:42;;;;;;;24.00;11.77;;;25.00;99.90;;;;;;4440603;32;20181;-67
2021/06/22 06:21:08;;;;;;;17.17;11.57;;;25.10;99.90;;;;;;4438088;32;20169;-67
2021/06/22 06:23:40;;;;;;;19.50;12.13;;;25.20;99.90;;;;;;4438919;32;20390;-67
2021/06/22 06:26:09;;;;;;;17.62;11.38;;;25.20;99.90;;;;;;4440411;32;20135;-67
2021/06/22 06:28:50;;;;;;;16.52;12.02;;;25.20;99.90;;;;;;4440407;32;20147;-67
2021/06/22 06:31:18;;;;;;;19.40;11.77;;;25.20;99.90;;;;;;4440419;32;20183;-66
2021/06/22 06:33:44;;;;;;;18.00;11.38;;;25.20;99.90;;;;;;4440065;32;20523;-67
2021/06/22 06:36:11;;;;;;;23.17;12.05;;;25.30;99.90;;;;;;4439674;32;20213;-66
2021/06/22 06:38:38;;;;;;;20.55;12.23;;;25.40;99.90;;;;;;4439123;32;20139;-66
2021/06/22 06:41:05;;;;;;;17.60;11.70;;;25.40;99.90;;;;;;4438756;32;20425;-66
2021/06/22 06:43:32;;;;;;;21.35;12.65;;;25.50;99.90;;;;;;4440160;32;20201;-67
2021/06/22 06:45:59;;;;;;;23.40;11.93;;;25.50;99.90;;;;;;4438028;32;20150;-66
2021/06/22 06:48:26;;;;;;;20.95;12.05;;;25.60;99.90;;;;;;4438646;32;20242;-66
2021/06/22 06:50:53;;;;;;;19.42;12.10;;;25.70;99.90;;;;;;4438576;32;20181;-66
2021/06/22 06:53:20;;;;;;;19.08;11.85;;;25.80;99.90;;;;;;4438534;32;20147;-66
2021/06/22 06:55:47;;;;;;;17.58;11.48;;;25.90;99.90;;;;;;4438748;32;20374;-66
2021/06/22 06:58:14;;;;;;;19.60;11.82;;;26.00;99.90;;;;;;4440062;32;20147;-66
2021/06/22 07:00:42;;;;;;;16.75;12.07;;;26.10;99.90;;;;;;4440064;32;20195;-66
2021/06/22 07:03:09;;;;;;;19.17;11.80;;;26.10;99.90;;;;;;4440034;32;20138;-67
2021/06/22 07:05:36;;;;;;;21.58;12.50;;;26.20;99.90;;;;;;4440208;32;20134;-67
2021/06/22 07:08:04;;;;;;;21.30;11.57;;;26.30;99.90;;;;;;4440369;32;20146;-67
2021/06/22 07:10:32;;;;;;;16.48;11.65;;;26.30;99.90;;;;;;4440288;32;20448;-66
2021/06/22 07:13:03;;;;;;;17.20;11.55;;;26.40;99.90;;;;;;4438745;32;20195;-66
2021/06/22 07:15:31;;;;;;;18.75;11.27;;;26.40;99.90;;;;;;4440658;32;20397;-66
2021/06/22 07:17:58;;;;;;;18.35;11.35;;;26.50;99.90;;;;;;4438709;32;20138;-66
2021/06/22 07:20:25;;;;;;;20.15;12.00;;;26.60;99.90;;;;;;4441134;32;20427;-66
2021/06/22 07:22:52;;;;;;;17.83;11.15;;;26.70;99.90;;;;;;4441738;32;20170;-66
2021/06/22 07:25:20;;;;;;;22.48;12.27;;;26.70;99.90;;;;;;4443146;32;20135;-66
2021/06/22 07:27:48;;;;;;;18.27;11.55;;;26.90;99.90;;;;;;4443063;32;20146;-67
2021/06/22 07:30:16;;;;;;;17.52;10.93;;;26.90;99.90;;;;;;4442411;32;20166;-66
2021/06/22 07:32:44;;;;;;;18.95;11.10;;;27.10;99.90;;;;;;4443479;32;20195;-65
2021/06/22 07:35:12;;;;;;;20.25;11.23;;;27.10;99.90;;;;;;4441526;32;20445;-65
2021/06/22 07:37:40;;;;;;;19.60;11.43;;;27.20;99.90;;;;;;4443251;32;20191;-66
2021/06/22 07:40:09;;;;;;;16.75;10.60;;;27.20;99.90;;;;;;4441695;32;20138;-66
2021/06/22 07:42:36;;;;;;;15.85;10.00;;;27.20;99.90;;;;;;4441480;32;20181;-67
2021/06/22 07:45:05;;;;;;;18.92;10.43;;;27.30;99.90;;;;;;4441016;32;20181;-67
2021/06/22 07:47:32;;;;;;;15.68;10.18;;;27.30;99.90;;;;;;4441369;32;20413;-66
2021/06/22 07:49:59;;;;;;;21.65;10.18;;;27.40;99.90;;;;;;4441672;32;20138;-66
2021/06/22 07:52:26;;;;;;;16.08;9.82;;;27.60;99.90;;;;;;4442841;32;20494;-66
2021/06/22 07:54:53;;;;;;;17.20;9.45;;;27.70;99.90;;;;;;4441774;32;20448;-66
2021/06/22 07:57:20;;;;;;;13.95;9.80;;;27.80;99.90;;;;;;4442044;32;20172;-66
2021/06/22 07:59:47;;;;;;;14.82;9.32;;;28.00;99.90;;;;;;4440610;32;20183;-66
2021/06/22 08:02:14;;;;;;;17.50;9.50;;;28.10;99.90;;;;;;4440146;32;20185;-66
2021/06/22 08:04:41;;;;;;;15.52;9.93;;;28.10;99.90;;;;;;4442217;32;20143;-67
2021/06/22 08:07:08;;;;;;;16.90;9.77;;;28.20;99.90;;;;;;4442542;32;20205;-67
2021/06/22 08:09:34;;;;;;;21.20;10.13;;;28.30;99.90;;;;;;4442838;32;20218;-67
2021/06/22 08:12:01;;;;;;;17.65;9.52;;;28.30;99.90;;;;;;4441343;32;20139;-67
2021/06/22 08:14:28;;;;;;;13.95;8.93;;;28.50;99.90;;;;;;4441365;32;20238;-67
2021/06/22 08:16:55;;;;;;;15.50;7.80;;;28.60;99.90;;;;;;4442568;32;20221;-67
2021/06/22 08:19:22;;;;;;;12.60;8.30;;;28.60;99.90;;;;;;4442607;32;20190;-67
2021/06/22 08:21:49;;;;;;;11.65;7.35;;;28.60;99.90;;;;;;4440947;32;20379;-67
2021/06/22 08:24:16;;;;;;;12.13;6.93;;;28.60;99.90;;;;;;4442558;32;20139;-67
2021/06/22 08:26:43;;;;;;;12.35;6.70;;;28.80;99.90;;;;;;4442648;32;20143;-67
2021/06/22 08:29:10;;;;;;;9.60;6.55;;;29.40;99.90;;;;;;4441296;32;20150;-67
2021/06/22 08:31:37;;;;;;;12.95;6.30;;;30.30;99.60;;;;;;4441693;32;20151;-67
2021/06/22 08:34:04;;;;;;;8.52;6.40;;;30.90;97.00;;;;;;4442585;32;20142;-67
2021/06/22 08:36:32;;;;;;;8.25;5.75;;;31.30;93.90;;;;;;4440767;32;20166;-67
2021/06/22 08:38:58;;;;;;;12.88;5.82;;;31.80;93.50;;;;;;4442288;32;20134;-67
2021/06/22 08:41:26;;;;;;;7.85;5.75;;;32.10;91.90;;;;;;4440925;32;20174;-67
2021/06/22 08:43:57;;;;;;;8.88;5.70;;;32.50;89.90;;;;;;4442276;32;20218;-66
2021/06/22 08:46:23;;;;;;;10.82;5.50;;;32.80;89.10;;;;;;4440416;32;20535;-67
2021/06/22 08:48:52;;;;;;;9.70;5.18;;;33.20;86.00;;;;;;4440914;32;20164;-67
2021/06/22 08:51:36;;;;;;;8.73;5.07;;;33.40;84.10;;;;;;4442331;32;20190;-66
2021/06/22 08:54:07;;;;;;;7.60;4.70;;;33.60;81.80;;;;;;4439749;32;20158;-66
2021/06/22 08:56:35;;;;;;;12.32;5.45;;;34.00;76.10;;;;;;4441243;32;20193;-67
2021/06/22 08:59:02;;;;;;;8.40;4.68;;;34.00;74.90;;;;;;4441948;32;20146;-67
2021/06/22 09:01:29;;;;;;;7.15;4.57;;;34.30;74.90;;;;;;4439997;32;20473;-68
2021/06/22 09:03:57;;;;;;;6.37;4.30;;;34.50;73.10;;;;;;4440495;32;20139;-66
2021/06/22 09:06:25;;;;;;;9.27;4.60;;;34.70;70.80;;;;;;4440538;32;20143;-67
2021/06/22 09:08:54;;;;;;;14.65;5.70;;;34.50;70.80;;;;;;4440124;32;20146;-67
2021/06/22 09:11:22;;;;;;;12.80;5.00;;;34.70;69.60;;;;;;4441795;32;20234;-67
2021/06/22 09:14:00;;;;;;;6.62;4.55;;;34.70;70.60;;;;;;4441034;32;20210;-66
2021/06/22 09:16:27;;;;;;;7.43;4.62;;;34.70;69.00;;;;;;4439984;32;20146;-67
2021/06/22 09:19:10;;;;;;;8.23;5.28;;;34.60;70.20;;;;;;4441641;32;20205;-67
2021/06/22 09:21:45;;;;;;;6.97;4.78;;;34.80;69.60;;;;;;4441467;32;20166;-67
2021/06/22 09:24:20;;;;;;;6.72;5.03;;;35.20;68.70;;;;;;4441223;32;20138;-67
2021/06/22 09:26:49;;;;;;;5.40;4.45;;;35.50;66.70;;;;;;4440453;32;20552;-67
2021/06/22 09:29:20;;;;;;;7.50;4.60;;;35.20;65.50;;;;;;4439873;32;20174;-67
2021/06/22 09:31:56;;;;;;;7.97;4.85;;;35.20;67.20;;;;;;4439922;32;20131;-67
2021/06/22 09:34:24;;;;;;;12.45;5.25;;;35.40;64.70;;;;;;4440133;32;20380;-67
2021/06/22 09:36:57;;;;;;;9.85;5.03;;;35.00;66.10;;;;;;4439633;32;20161;-67
2021/06/22 09:39:27;;;;;;;7.97;5.32;;;35.10;65.20;;;;;;4441186;32;20183;-66
2021/06/22 09:41:56;;;;;;;9.15;5.43;;;35.40;62.60;;;;;;4439164;32;20221;-67
2021/06/22 09:44:29;;;;;;;11.40;5.70;;;35.20;62.20;;;;;;4438775;32;20147;-67
2021/06/22 09:47:01;;;;;;;9.10;5.70;;;35.00;64.70;;;;;;4440688;32;20176;-68
2021/06/22 09:49:31;;;;;;;7.65;5.43;;;35.00;64.40;;;;;;4440587;32;20143;-67
2021/06/22 09:52:12;;;;;;;7.78;5.85;;;35.00;64.90;;;;;;4439783;32;20143;-66
2021/06/22 09:54:46;;;;;;;7.70;5.70;;;35.00;65.50;;;;;;4440610;32;20151;-67
2021/06/22 09:57:15;;;;;;;7.40;5.50;;;35.00;65.70;;;;;;4440634;32;20192;-67
2021/06/22 09:59:55;;;;;;;11.02;6.20;;;35.10;65.00;;;;;;4440946;32;20440;-68
2021/06/22 10:02:25;;;;;;;6.95;5.55;;;35.30;63.40;;;;;;4440836;32;20217;-68
2021/06/22 10:04:57;;;;;;;7.28;5.37;;;35.40;62.80;;;;;;4439505;32;20360;-67
2021/06/22 10:07:26;;;;;;;9.75;5.50;;;35.70;62.90;;;;;;4439406;32;20392;-67
2021/06/22 10:09:56;;;;;;;9.57;5.90;;;35.90;62.60;;;;;;4439186;32;20150;-67
2021/06/22 10:12:26;;;;;;;11.25;5.68;;;36.00;60.30;;;;;;4439653;32;20437;-68
2021/06/22 10:14:55;;;;;;;9.15;5.93;;;36.10;60.70;;;;;;4441015;32;20225;-68
2021/06/22 10:17:25;;;;;;;8.55;5.87;;;36.20;59.60;;;;;;4440749;32;20142;-67
2021/06/22 10:19:54;;;;;;;7.18;5.75;;;36.30;60.60;;;;;;4439441;32;20162;-67
2021/06/22 10:22:26;;;;;;;10.60;5.70;;;36.50;59.80;;;;;;4439407;32;20468;-67
2021/06/22 10:24:56;;;;;;;6.80;5.60;;;36.40;58.60;;;;;;4441026;32;20428;-67
2021/06/22 10:27:24;;;;;;;9.65;5.93;;;36.60;60.40;;;;;;4439801;32;20169;-67
2021/06/22 10:29:53;;;;;;;9.85;5.60;;;37.00;58.50;;;;;;4440895;32;20146;-68
2021/06/22 10:32:23;;;;;;;7.78;5.85;;;36.90;59.20;;;;;;4439334;32;20158;-68
2021/06/22 10:34:52;;;;;;;9.00;5.50;;;36.90;57.30;;;;;;4439265;32;20188;-68
2021/06/22 10:37:47;;;;;;;8.10;5.25;;;37.00;56.40;;;;;;4440828;32;20146;-68
2021/06/22 10:40:14;;;;;;;7.78;5.20;;;36.90;56.20;;;;;;4440642;32;20134;-68
2021/06/22 10:42:44;;;;;;;13.88;5.47;;;36.70;57.30;;;;;;4439156;32;20170;-68
2021/06/22 10:45:12;;;;;;;9.20;5.65;;;37.00;56.30;;;;;;4439622;32;20159;-68
2021/06/22 10:47:40;;;;;;;7.53;5.10;;;37.60;56.00;;;;;;4439303;32;20154;-67
2021/06/22 10:50:09;;;;;;;7.70;4.80;;;37.80;54.00;;;;;;4439314;32;20176;-67
2021/06/22 10:52:49;;;;;;;6.62;4.93;;;37.90;52.80;;;;;;4440501;32;20513;-67
2021/06/22 10:55:21;;;;;;;8.45;4.78;;;37.50;52.50;;;;;;4439932;32;20181;-67
2021/06/22 10:58:05;;;;;;;8.48;4.70;;;38.10;52.60;;;;;;4438989;32;20165;-67
2021/06/22 11:00:38;;;;;;;9.80;5.40;;;38.40;51.30;;;;;;4439159;32;20164;-68
2021/06/22 11:03:29;;;;;;;6.90;4.97;;;38.30;50.70;;;;;;4440404;32;20287;-67
2021/06/22 11:06:02;;;;;;;7.80;5.37;;;38.70;50.50;;;;;;4440394;32;20171;-66
2021/06/22 11:08:37;;;;;;;7.47;5.05;;;38.50;50.30;;;;;;4440416;32;20214;-68
2021/06/22 11:11:07;;;;;;;8.02;4.93;;;38.20;51.50;;;;;;4440481;32;20142;-67
2021/06/22 11:13:36;;;;;;;10.35;5.22;;;38.10;52.30;;;;;;4439767;32;20218;-68
2021/06/22 11:16:06;;;;;;;6.03;4.75;;;38.50;50.80;;;;;;4438802;32;20205;-68
2021/06/22 11:18:54;;;;;;;8.10;4.93;;;39.10;50.80;;;;;;4438687;32;20500;-68
2021/06/22 11:21:31;;;;;;;6.93;4.80;;;39.20;48.40;;;;;;4438987;32;20185;-67
2021/06/22 11:24:05;;;;;;;6.97;4.85;;;39.60;48.40;;;;;;4440795;32;20187;-66
2021/06/22 11:26:41;;;;;;;9.65;4.60;;;40.20;47.70;;;;;;4440122;32;20206;-66
2021/06/22 11:29:10;;;;;;;6.93;4.87;;;40.10;46.00;;;;;;4439436;32;20146;-67
2021/06/22 11:31:46;;;;;;;9.45;4.95;;;40.00;46.40;;;;;;4438760;32;20146;-66
2021/06/22 11:34:18;;;;;;;6.85;4.97;;;40.20;46.00;;;;;;4438622;32;20162;-66
2021/06/22 11:36:47;;;;;;;7.47;5.15;;;40.20;45.50;;;;;;4440131;32;20208;-66
2021/06/22 11:39:21;;;;;;;6.22;4.80;;;40.50;45.20;;;;;;4440581;32;20151;-67
2021/06/22 11:42:09;;;;;;;7.55;4.72;;;40.50;45.30;;;;;;4440032;32;20229;-67
2021/06/22 11:44:37;;;;;;;9.27;4.80;;;40.80;43.90;;;;;;4438632;32;20169;-67
2021/06/22 11:47:06;;;;;;;6.50;4.20;;;41.10;44.20;;;;;;4438552;32;20151;-67
2021/06/22 11:49:47;;;;;;;11.12;4.70;;;41.20;42.70;;;;;;4438377;32;20522;-67
2021/06/22 11:52:16;;;;;;;9.63;5.10;;;41.10;42.30;;;;;;4439547;32;20162;-66
2021/06/22 11:54:54;;;;;;;5.60;4.60;;;41.30;42.40;;;;;;4438517;32;20206;-66
2021/06/22 11:57:22;;;;;;;7.40;5.22;;;41.40;42.80;;;;;;4439987;32;20224;-66
2021/06/22 11:59:49;;;;;;;8.48;4.95;;;41.30;42.30;;;;;;4438319;32;20151;-67
2021/06/22 12:02:17;;;;;;;8.15;5.30;;;41.70;43.00;;;;;;4438651;32;20209;-67
2021/06/22 12:04:45;;;;;;;6.80;4.80;;;41.80;42.50;;;;;;4438094;32;20144;-67
2021/06/22 12:07:13;;;;;;;8.48;4.97;;;41.70;41.80;;;;;;4441511;32;20176;-67
2021/06/22 12:09:41;;;;;;;8.88;5.10;;;42.00;42.30;;;;;;4441130;32;20165;-67
2021/06/22 12:12:08;;;;;;;7.00;4.72;;;42.30;41.00;;;;;;4441048;32;20147;-68
2021/06/22 12:14:42;;;;;;;8.82;4.85;;;42.00;39.80;;;;;;4441768;32;20162;-68
2021/06/22 12:17:19;;;;;;;9.43;5.87;;;41.90;40.60;;;;;;4442951;32;20142;-67
2021/06/22 12:19:47;;;;;;;9.82;4.87;;;41.80;41.30;;;;;;4442456;32;20182;-68
2021/06/22 12:22:16;;;;;;;10.25;5.78;;;42.20;41.40;;;;;;4440924;32;20238;-66
2021/06/22 12:24:44;;;;;;;7.70;5.12;;;42.00;40.40;;;;;;4442860;32;20425;-67
2021/06/22 12:27:11;;;;;;;8.70;5.18;;;42.10;41.20;;;;;;4440772;32;20456;-68
2021/06/22 12:29:42;;;;;;;6.20;5.00;;;42.20;41.90;;;;;;4440827;32;20146;-66
2021/06/22 12:32:11;;;;;;;8.15;5.03;;;42.30;41.40;;;;;;4441543;32;20213;-68
2021/06/22 12:34:41;;;;;;;9.80;4.93;;;42.50;41.20;;;;;;4442413;32;20387;-67
2021/06/22 12:37:24;;;;;;;8.02;4.50;;;42.30;40.50;;;;;;4442400;32;20139;-67
2021/06/22 12:39:51;;;;;;;7.97;4.55;;;42.80;40.30;;;;;;4442367;32;20154;-67
2021/06/22 12:42:21;;;;;;;8.35;4.60;;;42.80;39.10;;;;;;4442277;32;20158;-67
2021/06/22 12:44:48;;;;;;;9.10;4.87;;;42.40;39.80;;;;;;4441644;32;20192;-67